createdAt,value
2019-04-20T00:01:58.167Z,13.10
2019-04-20T00:04:30.615Z,13.40
2019-04-20T00:06:57.960Z,13.10
2019-04-20T00:09:34.509Z,13.30
2019-04-20T00:12:10.866Z,13.10
2019-04-20T00:14:36.258Z,13.10
2019-04-20T00:17:07.192Z,13.20
2019-04-20T00:19:44.070Z,13.30
2019-04-20T00:22:15.227Z,13.10
2019-04-20T00:25:08.981Z,13.20
2019-04-20T00:28:12.978Z,13.20
2019-04-20T00:30:48.103Z,13.10
2019-04-20T00:33:07.716Z,13.20
2019-04-20T00:35:29.856Z,13.40
2019-04-20T00:38:01.162Z,13.40
2019-04-20T00:40:32.634Z,13.10
2019-04-20T00:43:04.664Z,13.40
2019-04-20T00:45:40.072Z,13.00
2019-04-20T00:48:21.219Z,13.00
2019-04-20T00:50:57.480Z,13.00
2019-04-20T00:53:21.728Z,12.90
2019-04-20T00:55:44.420Z,12.90
2019-04-20T00:58:22.312Z,12.80
2019-04-20T01:01:07.292Z,12.80
2019-04-20T01:03:37.729Z,12.70
2019-04-20T01:06:28.819Z,12.70
2019-04-20T01:08:59.302Z,12.70
2019-04-20T01:11:36.433Z,12.60
2019-04-20T01:14:05.983Z,12.60
2019-04-20T01:16:41.681Z,12.40
2019-04-20T01:19:05.992Z,12.40
2019-04-20T01:21:36.844Z,12.40
2019-04-20T01:24:11.410Z,12.50
2019-04-20T01:26:43.503Z,12.40
2019-04-20T01:29:21.804Z,12.40
2019-04-20T01:31:57.105Z,12.50
2019-04-20T01:34:32.256Z,12.40
2019-04-20T01:37:06.914Z,12.50
2019-04-20T01:39:33.015Z,12.40
2019-04-20T01:41:54.087Z,12.50
2019-04-20T01:44:31.622Z,12.40
2019-04-20T01:47:00.130Z,12.40
2019-04-20T01:49:33.254Z,12.30
2019-04-20T01:52:11.940Z,12.40
2019-04-20T01:54:52.885Z,12.60
2019-04-20T01:57:44.135Z,12.40
2019-04-20T02:00:21.255Z,12.30
2019-04-20T02:02:58.374Z,12.30
2019-04-20T02:05:30.580Z,12.20
2019-04-20T02:07:55.859Z,12.20
2019-04-20T02:10:37.114Z,12.20
2019-04-20T02:13:02.887Z,12.20
2019-04-20T02:15:38.574Z,12.20
2019-04-20T02:18:15.041Z,12.10
2019-04-20T02:20:54.229Z,12.10
2019-04-20T02:23:23.762Z,12.30
2019-04-20T02:25:40.302Z,12.00
2019-04-20T02:28:27.394Z,12.00
2019-04-20T02:33:49.926Z,12.00
2019-04-20T02:36:44.239Z,12.00
2019-04-20T02:39:21.133Z,12.00
2019-04-20T02:41:44.807Z,12.10
2019-04-20T02:46:51.103Z,12.00
2019-04-20T02:49:35.945Z,12.00
2019-04-20T02:57:03.424Z,11.80
2019-04-20T03:01:45.633Z,11.70
2019-04-20T03:04:02.085Z,11.90
2019-04-20T03:06:40.021Z,11.90
2019-04-20T03:09:27.225Z,11.90
2019-04-20T03:14:21.733Z,11.90
2019-04-20T03:16:56.795Z,11.90
2019-04-20T03:19:23.341Z,12.00
2019-04-20T03:22:08.815Z,11.80
2019-04-20T03:24:38.804Z,11.80
2019-04-20T03:27:15.818Z,11.70
2019-04-20T03:30:24.422Z,11.70
2019-04-20T03:33:05.385Z,11.80
2019-04-20T03:35:35.514Z,11.80
2019-04-20T03:37:48.584Z,11.70
2019-04-20T03:40:12.829Z,11.70
2019-04-20T03:42:33.068Z,11.70
2019-04-20T03:45:09.354Z,11.70
2019-04-20T03:47:47.539Z,11.70
2019-04-20T03:50:32.620Z,11.60
2019-04-20T03:53:10.098Z,11.70
2019-04-20T03:55:52.939Z,11.90
2019-04-20T03:58:47.115Z,11.60
2019-04-20T04:02:01.679Z,11.90
2019-04-20T04:04:27.202Z,11.90
2019-04-20T04:06:47.944Z,12.00
2019-04-20T04:09:25.842Z,11.80
2019-04-20T04:11:58.535Z,11.80
2019-04-20T04:14:18.303Z,11.70
2019-04-20T04:16:53.820Z,11.70
2019-04-20T04:19:27.979Z,11.70
2019-04-20T04:22:08.911Z,11.60
2019-04-20T04:24:35.403Z,11.60
2019-04-20T04:27:09.187Z,11.60
2019-04-20T04:29:47.044Z,11.60
2019-04-20T04:32:33.297Z,11.40
2019-04-20T04:34:48.568Z,11.70
2019-04-20T04:37:24.124Z,11.60
2019-04-20T04:40:11.176Z,11.80
2019-04-20T04:42:34.820Z,11.80
2019-04-20T04:44:50.472Z,11.60
2019-04-20T04:47:15.295Z,11.70
2019-04-20T04:49:55.240Z,11.50
2019-04-20T04:52:28.926Z,11.70
2019-04-20T04:54:59.035Z,11.40
2019-04-20T04:57:24.074Z,11.50
2019-04-20T04:59:55.276Z,11.40
2019-04-20T05:02:33.606Z,11.40
2019-04-20T05:05:38.140Z,11.30
2019-04-20T05:08:04.914Z,11.60
2019-04-20T05:10:24.602Z,11.40
2019-04-20T05:12:54.934Z,11.40
2019-04-20T05:15:37.585Z,11.40
2019-04-20T05:18:18.286Z,11.50
2019-04-20T05:20:53.424Z,11.50
2019-04-20T05:23:29.719Z,11.70
2019-04-20T05:26:16.907Z,11.60
2019-04-20T05:28:51.325Z,11.70
2019-04-20T05:31:15.473Z,11.70
2019-04-20T05:34:11.462Z,11.80
2019-04-20T05:36:41.263Z,11.70
2019-04-20T05:39:19.570Z,12.00
2019-04-20T05:41:41.944Z,12.00
2019-04-20T05:44:22.077Z,12.00
2019-04-20T05:47:01.087Z,12.20
2019-04-20T05:49:31.689Z,12.30
2019-04-20T05:52:10.519Z,12.10
2019-04-20T05:54:39.157Z,12.00
2019-04-20T05:57:16.718Z,12.40
2019-04-20T05:59:45.318Z,12.40
2019-04-20T06:02:09.735Z,12.30
2019-04-20T06:04:54.515Z,12.40
2019-04-20T06:07:15.535Z,12.40
2019-04-20T06:09:48.145Z,12.50
2019-04-20T06:12:20.124Z,12.60
2019-04-20T06:15:06.854Z,12.50
2019-04-20T06:17:55.444Z,12.60
2019-04-20T06:20:33.394Z,12.40
2019-04-20T06:23:14.280Z,12.70
2019-04-20T06:26:03.863Z,12.90
2019-04-20T06:28:22.260Z,12.90
2019-04-20T06:30:46.909Z,13.10
2019-04-20T06:34:19.854Z,13.10
2019-04-20T06:36:38.957Z,13.30
2019-04-20T06:39:17.515Z,13.70
2019-04-20T06:42:05.489Z,14.00
2019-04-20T06:44:16.483Z,14.10
2019-04-20T06:46:53.234Z,14.10
2019-04-20T06:49:22.433Z,14.20
2019-04-20T06:52:09.805Z,14.60
2019-04-20T06:54:48.660Z,15.20
2019-04-20T06:57:25.509Z,15.70
2019-04-20T06:59:52.541Z,15.80
2019-04-20T07:02:32.429Z,15.80
2019-04-20T07:04:55.462Z,15.90
2019-04-20T07:07:29.790Z,15.90
2019-04-20T07:10:08.674Z,15.90
2019-04-20T07:12:33.346Z,16.10
2019-04-20T07:14:55.605Z,16.30
2019-04-20T07:17:48.437Z,16.30
2019-04-20T07:20:51.631Z,16.50
2019-04-20T07:23:28.805Z,16.80
2019-04-20T07:26:12.794Z,17.00
2019-04-20T07:28:29.148Z,16.90
2019-04-20T07:30:55.343Z,17.20
2019-04-20T07:33:29.640Z,17.20
2019-04-20T07:35:58.034Z,17.10
2019-04-20T07:38:34.256Z,17.50
2019-04-20T07:40:59.993Z,18.30
2019-04-20T07:43:30.096Z,19.00
2019-04-20T07:46:09.324Z,19.70
2019-04-20T07:48:36.653Z,20.50
2019-04-20T07:51:00.408Z,20.70
2019-04-20T07:53:39.007Z,21.00
2019-04-20T07:56:12.587Z,21.20
2019-04-20T07:58:34.890Z,20.80
2019-04-20T08:01:31.653Z,20.40
2019-04-20T08:04:06.706Z,19.90
2019-04-20T08:06:37.863Z,19.80
2019-04-20T08:09:16.098Z,19.40
2019-04-20T08:11:57.878Z,19.20
2019-04-20T08:14:30.207Z,19.10
2019-04-20T08:17:21.345Z,19.00
2019-04-20T08:19:27.287Z,19.00
2019-04-20T08:22:09.494Z,19.20
2019-04-20T08:24:32.771Z,19.20
2019-04-20T08:26:57.237Z,19.30
2019-04-20T08:29:45.087Z,19.50
2019-04-20T08:32:31.316Z,19.60
2019-04-20T08:35:05.592Z,19.70
2019-04-20T08:37:31.038Z,19.70
2019-04-20T08:40:07.197Z,19.80
2019-04-20T08:42:49.723Z,19.90
2019-04-20T08:45:16.803Z,20.20
2019-04-20T08:48:09.876Z,20.30
2019-04-20T08:50:20.986Z,20.50
2019-04-20T08:55:19.842Z,20.40
2019-04-20T08:57:35.453Z,20.60
2019-04-20T09:00:09.034Z,20.60
2019-04-20T09:02:41.350Z,20.60
2019-04-20T09:05:28.537Z,20.70
2019-04-20T09:07:56.538Z,20.70
2019-04-20T09:10:39.479Z,20.80
2019-04-20T09:13:02.566Z,20.80
2019-04-20T09:15:23.267Z,20.60
2019-04-20T09:18:16.990Z,20.70
2019-04-20T09:20:48.679Z,20.90
2019-04-20T09:23:28.671Z,21.10
2019-04-20T09:26:07.476Z,21.20
2019-04-20T09:28:37.344Z,21.20
2019-04-20T09:31:22.716Z,21.40
2019-04-20T09:33:58.519Z,21.60
2019-04-20T09:36:32.515Z,21.40
2019-04-20T09:39:30.362Z,21.30
2019-04-20T09:42:07.516Z,21.50
2019-04-20T09:44:43.799Z,21.50
2019-04-20T09:47:12.222Z,21.80
2019-04-20T09:49:56.804Z,21.90
2019-04-20T09:52:30.061Z,22.00
2019-04-20T09:55:03.101Z,22.00
2019-04-20T09:57:37.979Z,22.10
2019-04-20T10:00:07.232Z,22.20
2019-04-20T10:02:28.158Z,22.60
2019-04-20T10:04:55.668Z,22.60
2019-04-20T10:07:32.608Z,22.70
2019-04-20T10:09:59.920Z,22.70
2019-04-20T10:12:31.519Z,23.10
2019-04-20T10:15:10.361Z,23.40
2019-04-20T10:17:35.715Z,23.50
2019-04-20T10:20:10.835Z,23.80
2019-04-20T10:22:40.601Z,24.20
2019-04-20T10:25:10.932Z,24.30
2019-04-20T10:27:42.465Z,24.50
2019-04-20T10:30:14.490Z,24.70
2019-04-20T10:32:48.974Z,24.90
2019-04-20T10:35:18.683Z,24.90
2019-04-20T10:37:55.561Z,25.20
2019-04-20T10:40:39.098Z,25.00
2019-04-20T10:43:01.029Z,25.20
2019-04-20T10:45:30.979Z,25.30
2019-04-20T10:48:01.651Z,25.30
2019-04-20T10:50:32.382Z,25.40
2019-04-20T10:53:03.682Z,25.60
2019-04-20T10:55:35.478Z,25.60
2019-04-20T10:58:07.272Z,25.60
2019-04-20T11:00:43.994Z,25.70
2019-04-20T11:03:15.879Z,25.80
2019-04-20T11:05:48.931Z,26.10
2019-04-20T11:08:20.353Z,26.10
2019-04-20T11:11:03.500Z,26.30
2019-04-20T11:13:23.535Z,26.50
2019-04-20T11:15:54.670Z,26.50
2019-04-20T11:18:25.453Z,26.60
2019-04-20T11:20:57.357Z,26.50
2019-04-20T11:23:28.644Z,26.30
2019-04-20T11:26:00.138Z,26.50
2019-04-20T11:28:32.471Z,26.50
2019-04-20T11:31:04.066Z,26.50
2019-04-20T11:33:34.380Z,26.30
2019-04-20T11:36:05.201Z,26.40
2019-04-20T11:38:35.484Z,26.60
2019-04-20T11:41:14.418Z,26.70
2019-04-20T11:43:39.850Z,26.90
2019-04-20T11:46:10.244Z,27.40
2019-04-20T11:48:41.402Z,27.60
2019-04-20T11:51:13.651Z,27.30
2019-04-20T11:53:44.034Z,27.40
2019-04-20T11:58:19.729Z,27.50
2019-04-20T12:00:59.451Z,27.50
2019-04-20T12:03:32.884Z,27.40
2019-04-20T12:06:03.510Z,27.00
2019-04-20T12:08:36.029Z,26.80
2019-04-20T12:11:22.702Z,27.00
2019-04-20T12:13:38.840Z,27.10
2019-04-20T12:16:09.884Z,27.80
2019-04-20T12:18:40.463Z,27.80
2019-04-20T12:21:10.719Z,28.10
2019-04-20T12:23:42.337Z,27.60
2019-04-20T12:26:13.029Z,27.50
2019-04-20T12:28:43.806Z,27.40
2019-04-20T12:31:20.295Z,27.40
2019-04-20T12:33:46.500Z,27.50
2019-04-20T12:36:18.329Z,27.80
2019-04-20T12:38:48.772Z,28.20
2019-04-20T12:41:31.979Z,28.20
2019-04-20T12:43:51.954Z,28.10
2019-04-20T12:46:23.413Z,28.10
2019-04-20T12:48:55.671Z,28.50
2019-04-20T12:51:33.603Z,28.60
2019-04-20T12:53:58.443Z,28.60
2019-04-20T12:56:28.998Z,28.50
2019-04-20T12:58:59.920Z,28.20
2019-04-20T13:01:30.465Z,27.40
2019-04-20T13:04:02.941Z,27.00
2019-04-20T13:06:34.078Z,26.90
2019-04-20T13:09:12.540Z,26.60
2019-04-20T13:11:57.067Z,26.50
2019-04-20T13:15:04.451Z,26.30
2019-04-20T13:17:34.773Z,26.30
2019-04-20T13:20:06.129Z,26.20
2019-04-20T13:22:37.039Z,26.30
2019-04-20T13:25:07.495Z,26.30
2019-04-20T13:27:38.881Z,26.20
2019-04-20T13:30:11.130Z,26.10
2019-04-20T13:32:41.583Z,26.40
2019-04-20T13:35:12.211Z,26.30
2019-04-20T13:37:44.000Z,26.10
2019-04-20T13:40:17.673Z,26.10
2019-04-20T13:42:49.797Z,25.90
2019-04-20T13:45:21.261Z,25.80
2019-04-20T13:47:52.794Z,25.70
2019-04-20T13:50:24.106Z,25.80
2019-04-20T13:52:54.472Z,25.80
2019-04-20T13:55:25.431Z,25.70
2019-04-20T13:58:07.366Z,25.70
2019-04-20T14:01:08.502Z,25.70
2019-04-20T14:03:38.976Z,25.70
2019-04-20T14:06:10.855Z,25.40
2019-04-20T14:08:43.171Z,25.20
2019-04-20T14:11:13.619Z,24.90
2019-04-20T14:13:52.989Z,24.90
2019-04-20T14:16:16.775Z,24.80
2019-04-20T14:18:47.184Z,24.90
2019-04-20T14:21:18.453Z,24.70
2019-04-20T14:23:50.788Z,24.60
2019-04-20T14:26:22.943Z,24.60
2019-04-20T14:28:54.678Z,24.60
2019-04-20T14:31:25.882Z,24.50
2019-04-20T14:33:57.185Z,24.50
2019-04-20T14:36:28.811Z,24.60
2019-04-20T14:39:00.443Z,24.40
2019-04-20T14:41:30.780Z,24.40
2019-04-20T14:44:01.623Z,24.60
2019-04-20T14:46:33.547Z,24.80
2019-04-20T14:49:04.927Z,24.80
2019-04-20T14:51:35.372Z,24.50
2019-04-20T14:54:07.418Z,24.40
2019-04-20T14:56:37.840Z,24.60
2019-04-20T14:59:13.697Z,24.70
2019-04-20T15:01:50.407Z,24.30
2019-04-20T15:04:23.269Z,24.40
2019-04-20T15:06:54.742Z,24.20
2019-04-20T15:09:26.571Z,24.30
2019-04-20T15:11:57.420Z,24.20
2019-04-20T15:14:28.942Z,24.40
2019-04-20T15:17:00.621Z,24.30
2019-04-20T15:19:51.646Z,24.20
2019-04-20T15:22:41.369Z,23.90
2019-04-20T15:25:13.718Z,24.10
2019-04-20T15:27:46.051Z,23.80
2019-04-20T15:30:16.281Z,23.70
2019-04-20T15:32:47.148Z,23.60
2019-04-20T15:35:19.221Z,23.70
2019-04-20T15:37:49.467Z,23.70
2019-04-20T15:40:19.792Z,23.50
2019-04-20T15:42:59.051Z,23.40
2019-04-20T15:45:23.273Z,23.40
2019-04-20T15:47:54.142Z,23.10
2019-04-20T15:50:25.681Z,23.00
2019-04-20T15:52:57.383Z,22.80
2019-04-20T15:55:33.007Z,22.90
2019-04-20T15:58:03.258Z,22.70
2019-04-20T16:00:32.351Z,22.50
2019-04-20T16:03:09.537Z,22.60
2019-04-20T16:05:53.385Z,22.40
2019-04-20T16:08:42.108Z,22.40
2019-04-20T16:11:13.312Z,22.30
2019-04-20T16:13:47.713Z,22.30
2019-04-20T16:16:16.510Z,22.40
2019-04-20T16:18:46.933Z,22.20
2019-04-20T16:21:22.559Z,22.00
2019-04-20T16:23:54.906Z,22.00
2019-04-20T16:26:31.475Z,22.10
2019-04-20T16:29:02.004Z,22.40
2019-04-20T16:31:32.773Z,22.30
2019-04-20T16:34:03.392Z,22.20
2019-04-20T16:36:34.632Z,22.10
2019-04-20T16:39:09.203Z,21.80
2019-04-20T16:41:40.228Z,21.70
2019-04-20T16:44:11.354Z,21.60
2019-04-20T16:46:42.492Z,21.50
2019-04-20T16:49:13.026Z,21.50
2019-04-20T16:51:45.103Z,21.60
2019-04-20T16:54:15.329Z,21.60
2019-04-20T16:56:46.636Z,21.70
2019-04-20T16:59:18.997Z,21.70
2019-04-20T17:01:50.532Z,21.80
2019-04-20T17:04:24.023Z,21.80
2019-04-20T17:07:12.585Z,21.60
2019-04-20T17:09:43.922Z,21.30
2019-04-20T17:12:15.435Z,21.30
2019-04-20T17:14:45.937Z,21.10
2019-04-20T17:17:17.672Z,21.10
2019-04-20T17:19:49.297Z,21.20
2019-04-20T17:22:19.719Z,21.00
2019-04-20T17:24:51.371Z,21.00
2019-04-20T17:27:31.028Z,21.00
2019-04-20T17:30:21.968Z,21.10
2019-04-20T17:32:52.280Z,20.90
2019-04-20T17:35:37.311Z,20.70
2019-04-20T17:37:56.450Z,20.70
2019-04-20T17:40:46.143Z,20.60
2019-04-20T17:43:10.549Z,20.60
2019-04-20T17:45:41.979Z,20.50
2019-04-20T17:48:17.551Z,20.40
2019-04-20T17:50:54.524Z,20.00
2019-04-20T17:53:27.802Z,19.90
2019-04-20T17:55:51.769Z,19.80
2019-04-20T17:58:27.899Z,19.70
2019-04-20T18:01:24.073Z,19.60
2019-04-20T18:04:13.927Z,19.50
2019-04-20T18:06:35.835Z,19.40
2019-04-20T18:09:04.126Z,19.30
2019-04-20T18:11:24.326Z,19.20
2019-04-20T18:14:05.644Z,19.10
2019-04-20T18:16:46.480Z,19.10
2019-04-20T18:19:22.927Z,19.10
2019-04-20T18:22:09.767Z,19.00
2019-04-20T18:25:02.650Z,18.70
2019-04-20T18:27:36.207Z,18.60
2019-04-20T18:30:01.456Z,18.40
2019-04-20T18:32:23.251Z,18.40
2019-04-20T18:35:02.747Z,18.20
2019-04-20T18:37:32.675Z,18.10
2019-04-20T18:40:10.718Z,18.00
2019-04-20T18:42:40.464Z,18.10
2019-04-20T18:45:28.364Z,18.10
2019-04-20T18:47:59.964Z,18.00
2019-04-20T18:50:22.951Z,17.90
2019-04-20T18:52:45.419Z,17.90
2019-04-20T18:55:22.263Z,17.70
2019-04-20T18:57:48.929Z,17.60
2019-04-20T19:00:28.701Z,17.30
2019-04-20T19:02:57.783Z,17.20
2019-04-20T19:05:26.878Z,17.10
2019-04-20T19:08:01.521Z,17.10
2019-04-20T19:10:34.474Z,17.10
2019-04-20T19:13:07.991Z,16.90
2019-04-20T19:16:20.922Z,16.80
2019-04-20T19:19:03.951Z,16.70
2019-04-20T19:21:21.892Z,16.80
2019-04-20T19:23:59.865Z,16.60
2019-04-20T19:26:26.666Z,16.50
2019-04-20T19:29:03.479Z,16.40
2019-04-20T19:31:46.095Z,16.30
2019-04-20T19:34:23.950Z,16.20
2019-04-20T19:36:40.213Z,16.10
2019-04-20T19:39:21.378Z,16.10
2019-04-20T19:41:49.836Z,16.10
2019-04-20T19:44:24.139Z,16.10
2019-04-20T19:47:05.384Z,16.00
2019-04-20T19:49:25.068Z,15.90
2019-04-20T19:52:20.695Z,16.00
2019-04-20T19:54:43.387Z,15.80
2019-04-20T19:57:04.877Z,15.80
2019-04-20T19:59:34.239Z,15.60
2019-04-20T20:01:56.328Z,15.60
2019-04-20T20:04:27.022Z,15.50
2019-04-20T20:07:03.606Z,15.50
2019-04-20T20:09:32.310Z,15.40
2019-04-20T20:12:05.443Z,15.40
2019-04-20T20:14:39.747Z,15.30
2019-04-20T20:17:26.950Z,15.30
2019-04-20T20:20:06.937Z,15.10
2019-04-20T20:22:21.637Z,15.10
2019-04-20T20:24:43.328Z,15.00
2019-04-20T20:27:25.401Z,15.00
2019-04-20T20:29:55.868Z,14.90
2019-04-20T20:32:31.022Z,14.90
2019-04-20T20:35:00.078Z,14.80
2019-04-20T20:37:30.384Z,14.90
2019-04-20T20:40:08.937Z,14.70
2019-04-20T20:42:39.872Z,14.70
2019-04-20T20:45:14.277Z,14.70
2019-04-20T20:47:48.487Z,14.60
2019-04-20T20:50:27.206Z,14.70
2019-04-20T20:52:50.830Z,14.60
2019-04-20T20:55:21.007Z,14.60
2019-04-20T20:57:52.009Z,14.50
2019-04-20T21:00:22.682Z,14.60
2019-04-20T21:02:50.894Z,14.50
2019-04-20T21:05:17.608Z,14.50
2019-04-20T21:07:50.826Z,14.70
2019-04-20T21:10:25.904Z,14.70
2019-04-20T21:12:56.523Z,14.80
2019-04-20T21:15:26.399Z,14.60
2019-04-20T21:18:20.546Z,14.50
2019-04-20T21:20:51.559Z,14.40
2019-04-20T21:23:15.135Z,14.30
2019-04-20T21:25:44.114Z,14.20
2019-04-20T21:28:10.923Z,14.20
2019-04-20T21:30:46.416Z,14.10
2019-04-20T21:33:15.013Z,14.10
2019-04-20T21:35:49.848Z,14.00
2019-04-20T21:38:18.974Z,13.90
2019-04-20T21:40:58.696Z,13.90
2019-04-20T21:43:27.915Z,13.90
2019-04-20T21:45:59.720Z,14.10
2019-04-20T21:48:48.723Z,13.80
2019-04-20T21:51:14.079Z,13.80
2019-04-20T21:53:33.378Z,13.70
2019-04-20T21:56:01.986Z,13.70
2019-04-20T21:58:39.527Z,13.60
2019-04-20T22:01:16.436Z,13.80
2019-04-20T22:03:38.395Z,13.60
2019-04-20T22:06:10.615Z,13.50
2019-04-20T22:08:50.159Z,13.50
2019-04-20T22:11:13.596Z,13.40
2019-04-20T22:13:45.854Z,13.50
2019-04-20T22:16:18.184Z,13.30
2019-04-20T22:18:59.194Z,13.30
2019-04-20T22:21:26.448Z,13.50
2019-04-20T22:24:06.538Z,13.40
2019-04-20T22:26:32.826Z,13.30
2019-04-20T22:28:58.215Z,13.20
2019-04-20T22:31:29.927Z,13.30
2019-04-20T22:34:10.329Z,13.20
2019-04-20T22:36:38.604Z,13.20
2019-04-20T22:39:11.653Z,13.40
2019-04-20T22:41:45.812Z,13.10
2019-04-20T22:44:20.684Z,13.10
2019-04-20T22:46:48.414Z,13.00
2019-04-20T22:49:36.133Z,13.10
2019-04-20T22:52:00.582Z,13.10
2019-04-20T22:54:43.672Z,13.20
2019-04-20T22:57:03.778Z,13.10
2019-04-20T22:59:39.850Z,13.00
2019-04-20T23:02:01.134Z,13.00
2019-04-20T23:04:33.052Z,12.90
2019-04-20T23:07:05.029Z,13.00
2019-04-20T23:09:43.893Z,12.90
2019-04-20T23:12:14.712Z,13.00
2019-04-20T23:14:40.411Z,12.90
2019-04-20T23:17:10.735Z,12.70
2019-04-20T23:19:48.525Z,13.00
2019-04-20T23:22:15.268Z,13.00
2019-04-20T23:24:44.987Z,13.00
2019-04-20T23:27:18.876Z,12.90
2019-04-20T23:29:47.121Z,13.00
2019-04-20T23:32:18.138Z,13.00
2019-04-20T23:34:57.655Z,13.10
2019-04-20T23:37:29.276Z,13.20
2019-04-20T23:39:54.462Z,13.20
2019-04-20T23:42:33.637Z,13.20
2019-04-20T23:45:26.492Z,13.20
2019-04-20T23:48:03.089Z,13.20
2019-04-20T23:50:49.070Z,13.10
2019-04-20T23:53:21.467Z,13.20
2019-04-20T23:55:35.881Z,13.30
2019-04-20T23:58:08.788Z,13.10
